Time;durP1;ratioP1;P1;durP2;ratioP2;P2;SDS_P1;SDS_P2;PMS_P1;PMS_P2;Temp;Humidity;BMP_temperature;BMP_pressure;BME280_temperature;BME280_humidity;BME280_pressure;Samples;Min_cycle;Max_cycle;Signal;HPM_P1;HPM_P2
2022/05/02 00:02:16;;;;;;;32.55;18.90;;;;;;;8.52;80.00;99674.56;4994576;28;20105;-52
2022/05/02 00:04:41;;;;;;;26.50;18.13;;;;;;;8.35;80.97;99683.06;4997924;28;20102;-54
2022/05/02 00:07:07;;;;;;;28.23;17.95;;;;;;;8.21;83.50;99681.53;4991973;28;20050;-52
2022/05/02 00:09:32;;;;;;;29.20;17.83;;;;;;;8.15;83.72;99674.38;4993582;28;20349;-51
2022/05/02 00:11:58;;;;;;;30.25;18.50;;;;;;;8.15;82.66;99675.19;4991753;28;20038;-53
2022/05/02 00:14:24;;;;;;;32.67;20.08;;;;;;;8.18;82.97;99671.28;5004196;28;20037;-52
2022/05/02 00:16:49;;;;;;;29.67;19.88;;;;;;;8.26;82.13;99667.53;4995210;28;20038;-51
2022/05/02 00:19:15;;;;;;;31.25;19.20;;;;;;;8.31;81.82;99668.53;4990164;28;20086;-52
2022/05/02 00:21:40;;;;;;;34.10;19.90;;;;;;;8.30;79.65;99658.88;4991385;28;20035;-51
2022/05/02 00:24:07;;;;;;;28.70;18.95;;;;;;;8.30;79.54;99661.53;4997512;28;20029;-50
2022/05/02 00:26:32;;;;;;;31.80;20.17;;;;;;;8.30;79.70;99661.53;4991075;28;20100;-51
2022/05/02 00:28:58;;;;;;;31.58;19.02;;;;;;;8.33;79.09;99660.28;4996973;28;20428;-53
2022/05/02 00:31:23;;;;;;;29.60;19.00;;;;;;;8.19;80.80;99654.25;4993562;28;20038;-54
2022/05/02 00:33:48;;;;;;;34.17;18.52;;;;;;;8.21;81.11;99652.16;4993911;28;20038;-50
2022/05/02 00:36:15;;;;;;;30.05;19.42;;;;;;;8.09;81.73;99649.38;4997501;28;20046;-51
2022/05/02 00:38:41;;;;;;;26.35;17.70;;;;;;;8.04;82.79;99646.53;4992140;28;20126;-51
2022/05/02 00:41:06;;;;;;;28.80;18.88;;;;;;;7.91;83.01;99650.09;4997858;28;20457;-51
2022/05/02 00:43:31;;;;;;;31.60;20.55;;;;;;;8.21;80.64;99641.47;4991808;28;20037;-50
2022/05/02 00:45:57;;;;;;;35.53;20.15;;;;;;;8.23;80.01;99642.06;4997966;28;20042;-50
2022/05/02 00:48:22;;;;;;;30.17;20.83;;;;;;;8.25;79.75;99637.34;4994483;28;20037;-50
2022/05/02 00:50:48;;;;;;;28.30;19.08;;;;;;;8.27;79.74;99640.63;4993686;28;20045;-50
2022/05/02 00:53:15;;;;;;;30.35;20.40;;;;;;;8.34;80.03;99641.38;4989734;28;20489;-53
2022/05/02 00:55:41;;;;;;;28.02;18.77;;;;;;;8.31;80.36;99636.47;4988807;28;20558;-51
2022/05/02 00:58:07;;;;;;;30.17;18.58;;;;;;;8.30;81.24;99629.50;4988851;28;20030;-51
2022/05/02 01:00:33;;;;;;;30.35;19.20;;;;;;;8.23;80.99;99638.59;4994895;28;20038;-53
2022/05/02 01:02:59;;;;;;;31.33;19.65;;;;;;;8.18;82.02;99633.91;4989775;28;20022;-50
2022/05/02 01:05:24;;;;;;;32.45;19.02;;;;;;;8.10;81.23;99639.50;4979777;28;20038;-52
2022/05/02 01:07:50;;;;;;;31.23;19.98;;;;;;;8.27;80.38;99635.28;4994781;28;20109;-52
2022/05/02 01:10:17;;;;;;;29.77;19.40;;;;;;;8.27;80.04;99632.59;4990414;28;20034;-52
2022/05/02 01:12:46;;;;;;;31.50;19.92;;;;;;;8.21;81.02;99638.78;4995129;28;20037;-53
2022/05/02 01:15:12;;;;;;;31.95;19.73;;;;;;;8.23;81.27;99635.91;4994038;28;20030;-52
2022/05/02 01:17:37;;;;;;;35.03;20.27;;;;;;;8.26;81.04;99633.63;4997792;28;20411;-53
2022/05/02 01:20:13;;;;;;;30.98;19.67;;;;;;;8.27;80.58;99623.78;4993485;28;20504;-52
2022/05/02 01:22:38;;;;;;;32.85;19.73;;;;;;;8.17;80.52;99629.59;4992505;28;20108;-52
2022/05/02 01:25:04;;;;;;;31.85;19.13;;;;;;;8.14;80.64;99624.69;4992465;28;20022;-53
2022/05/02 01:27:29;;;;;;;31.63;20.02;;;;;;;8.12;80.80;99621.44;4994988;28;20344;-53
2022/05/02 01:29:55;;;;;;;31.85;18.75;;;;;;;8.21;80.81;99625.44;4987918;28;20531;-53
2022/05/02 01:32:20;;;;;;;31.40;19.42;;;;;;;8.19;80.59;99627.53;4991475;28;20715;-53
2022/05/02 01:34:45;;;;;;;30.63;19.20;;;;;;;8.17;81.06;99624.25;4988986;28;20469;-53
2022/05/02 01:37:12;;;;;;;31.95;20.63;;;;;;;8.10;80.99;99629.63;4994794;28;20039;-53
2022/05/02 01:39:37;;;;;;;32.55;20.40;;;;;;;8.10;81.54;99620.81;4993699;28;20030;-50
2022/05/02 01:42:04;;;;;;;31.58;20.02;;;;;;;7.97;81.59;99625.22;4993676;28;20515;-50
2022/05/02 01:44:30;;;;;;;40.22;20.70;;;;;;;7.90;81.76;99624.44;4992512;28;20496;-51
2022/05/02 01:46:55;;;;;;;31.52;19.98;;;;;;;7.85;82.20;99626.94;4993717;28;20443;-51
2022/05/02 01:49:21;;;;;;;30.70;18.75;;;;;;;7.93;82.93;99624.00;4994378;28;20666;-53
2022/05/02 01:51:46;;;;;;;37.92;20.15;;;;;;;7.92;81.97;99625.03;4978614;28;20138;-51
2022/05/02 01:54:12;;;;;;;38.40;21.55;;;;;;;8.00;82.64;99621.28;4993582;28;20404;-50
2022/05/02 01:56:37;;;;;;;34.58;20.17;;;;;;;7.95;82.73;99621.94;4989709;28;20049;-53
2022/05/02 01:59:03;;;;;;;34.72;21.33;;;;;;;7.91;81.94;99620.75;4987500;28;20041;-53
2022/05/02 02:01:29;;;;;;;38.40;20.15;;;;;;;7.97;83.21;99622.53;4991129;28;20119;-51
2022/05/02 02:03:55;;;;;;;34.50;19.95;;;;;;;7.91;82.58;99625.25;4991810;28;20476;-52
2022/05/02 02:06:21;;;;;;;28.98;19.38;;;;;;;7.80;82.70;99613.41;4991693;28;20038;-51
2022/05/02 02:08:47;;;;;;;32.67;20.55;;;;;;;7.73;83.20;99613.44;4991205;28;20036;-50
2022/05/02 02:11:13;;;;;;;29.80;19.85;;;;;;;7.71;82.87;99614.69;4990131;28;20497;-50
2022/05/02 02:13:38;;;;;;;35.50;21.55;;;;;;;7.77;83.58;99612.00;4994301;28;20030;-51
2022/05/02 02:16:07;;;;;;;35.10;21.85;;;;;;;7.78;82.91;99615.47;4988033;28;20058;-51
2022/05/02 02:18:33;;;;;;;41.40;21.48;;;;;;;7.80;82.38;99609.94;4987993;28;20065;-50
2022/05/02 02:20:59;;;;;;;32.78;20.88;;;;;;;7.80;82.21;99617.94;4987067;28;20507;-51
2022/05/02 02:23:24;;;;;;;38.63;21.02;;;;;;;7.83;82.22;99618.31;4986032;28;20038;-50
2022/05/02 02:25:50;;;;;;;34.75;21.27;;;;;;;7.79;83.13;99617.13;4990108;28;20049;-49
2022/05/02 02:28:15;;;;;;;38.97;22.63;;;;;;;7.74;82.95;99619.63;4996802;28;20030;-51
2022/05/02 02:30:51;;;;;;;35.03;21.95;;;;;;;7.75;82.57;99610.56;5093445;27;20398;-51
2022/05/02 02:33:17;;;;;;;37.42;21.88;;;;;;;7.73;82.60;99608.09;5088473;28;20676;-48
2022/05/02 02:35:42;;;;;;;37.97;21.60;;;;;;;7.74;82.85;99611.63;5083210;28;20037;-52
2022/05/02 02:38:12;;;;;;;37.65;22.00;;;;;;;7.74;82.76;99604.44;5083033;28;20040;-49
2022/05/02 02:40:39;;;;;;;33.03;22.65;;;;;;;7.72;82.81;99603.00;5082744;28;20505;-54
2022/05/02 02:43:06;;;;;;;36.00;21.88;;;;;;;7.72;83.28;99605.66;5086825;28;20036;-51
2022/05/02 02:45:32;;;;;;;34.97;20.95;;;;;;;7.69;83.48;99598.09;5085627;28;20052;-53
2022/05/02 02:47:57;;;;;;;36.97;22.65;;;;;;;7.68;83.20;99607.13;5082772;28;20454;-54
2022/05/02 02:50:23;;;;;;;38.63;21.95;;;;;;;7.68;84.11;99599.13;5083089;28;20067;-54
2022/05/02 02:52:48;;;;;;;39.20;22.77;;;;;;;7.76;83.11;99598.84;5083639;28;20095;-52
2022/05/02 02:55:14;;;;;;;37.90;24.10;;;;;;;7.72;83.94;99595.00;5082771;28;20024;-52
2022/05/02 02:57:39;;;;;;;39.88;23.48;;;;;;;7.67;84.15;99589.50;5095544;28;20576;-53
2022/05/02 03:00:08;;;;;;;37.97;23.20;;;;;;;7.72;84.59;99589.66;5082483;28;20020;-53
2022/05/02 03:02:38;;;;;;;36.97;23.05;;;;;;;7.75;84.13;99583.88;5082981;28;20051;-52
2022/05/02 03:07:47;;;;;;;36.05;23.15;;;;;;;7.68;83.82;99572.44;5081252;28;20046;-53
2022/05/02 03:10:15;;;;;;;35.42;21.75;;;;;;;7.74;83.99;99571.59;5088818;28;20028;-53
2022/05/02 03:12:41;;;;;;;35.92;22.33;;;;;;;7.68;84.54;99569.78;5081339;28;20025;-53
2022/05/02 03:15:07;;;;;;;36.72;22.27;;;;;;;7.67;84.84;99576.97;5086487;28;20056;-53
2022/05/02 03:17:33;;;;;;;37.00;23.08;;;;;;;7.62;85.69;99566.13;5080928;28;20101;-53
2022/05/02 03:20:01;;;;;;;41.58;23.85;;;;;;;7.46;86.92;99571.94;5089389;28;20526;-53
2022/05/02 03:22:27;;;;;;;38.90;23.58;;;;;;;7.63;86.30;99569.59;5087608;28;20081;-53
2022/05/02 03:24:53;;;;;;;38.05;24.58;;;;;;;7.57;85.56;99558.75;5084706;28;20425;-55
2022/05/02 03:27:18;;;;;;;44.28;26.48;;;;;;;7.63;85.93;99564.25;5080949;28;20731;-51
2022/05/02 03:29:44;;;;;;;37.88;23.73;;;;;;;7.64;85.66;99560.56;5085310;28;20465;-53
2022/05/02 03:32:10;;;;;;;46.65;24.17;;;;;;;7.69;86.01;99566.09;5081342;28;20104;-50
2022/05/02 03:34:35;;;;;;;40.78;25.05;;;;;;;7.65;86.09;99562.19;5082573;28;20107;-54
2022/05/02 03:37:01;;;;;;;40.50;24.30;;;;;;;7.60;86.10;99560.19;5085445;28;20487;-51
2022/05/02 03:39:26;;;;;;;36.13;22.13;;;;;;;7.68;87.38;99553.75;5081781;28;20541;-54
2022/05/02 03:41:52;;;;;;;36.42;22.00;;;;;;;7.59;86.55;99557.72;5057255;28;20465;-51
2022/05/02 03:44:18;;;;;;;39.25;22.20;;;;;;;7.72;89.35;99558.47;5068620;28;20119;-51
2022/05/02 03:46:44;;;;;;;42.88;24.38;;;;;;;7.77;88.95;99557.81;5070932;28;20031;-53
2022/05/02 03:49:09;;;;;;;37.38;23.80;;;;;;;7.76;88.80;99558.81;5067310;28;20037;-54
2022/05/02 03:51:35;;;;;;;39.35;23.92;;;;;;;7.82;88.24;99557.97;5085277;28;20084;-53
2022/05/02 03:54:01;;;;;;;37.50;25.10;;;;;;;7.67;87.44;99560.94;5073357;28;20038;-52
2022/05/02 03:56:26;;;;;;;50.35;26.67;;;;;;;7.68;86.86;99556.44;5056611;28;20098;-52
2022/05/02 03:58:52;;;;;;;43.85;26.42;;;;;;;7.63;85.80;99556.25;5067450;28;20039;-53
2022/05/02 04:01:18;;;;;;;40.75;26.45;;;;;;;7.72;86.47;99555.78;5073611;28;20157;-53
2022/05/02 04:03:43;;;;;;;51.83;26.88;;;;;;;7.76;85.78;99558.81;5067027;28;20538;-52
2022/05/02 04:06:09;;;;;;;52.22;27.65;;;;;;;7.77;85.81;99558.63;5068612;28;20359;-55
2022/05/02 04:08:35;;;;;;;46.33;28.00;;;;;;;7.75;85.92;99562.53;5068084;28;20144;-50
2022/05/02 04:11:00;;;;;;;42.35;24.55;;;;;;;7.68;86.66;99548.44;5067657;28;20457;-52
2022/05/02 04:13:26;;;;;;;39.22;23.45;;;;;;;7.62;87.64;99557.31;5072539;28;20505;-52
2022/05/02 04:15:51;;;;;;;46.50;24.63;;;;;;;7.63;87.23;99556.25;5065980;28;20028;-53
2022/05/02 04:18:17;;;;;;;47.50;24.75;;;;;;;7.64;87.20;99569.41;5079690;28;20544;-52
2022/05/02 04:20:43;;;;;;;40.35;24.48;;;;;;;7.63;87.69;99558.94;5067304;28;20051;-53
2022/05/02 04:23:09;;;;;;;42.88;25.35;;;;;;;7.66;88.14;99564.66;5068089;28;20036;-52
2022/05/02 04:25:37;;;;;;;38.70;23.52;;;;;;;7.63;88.29;99556.25;5066061;28;20068;-52
2022/05/02 04:28:03;;;;;;;38.85;24.40;;;;;;;7.66;87.90;99558.50;5075042;28;20579;-53
2022/05/02 04:30:29;;;;;;;37.15;23.35;;;;;;;7.80;87.64;99552.03;5070072;28;20265;-53
2022/05/02 04:32:54;;;;;;;38.75;23.13;;;;;;;7.90;87.43;99560.38;5074198;28;20071;-50
2022/05/02 04:35:20;;;;;;;37.60;23.55;;;;;;;8.09;86.14;99558.59;5070996;28;20060;-53
2022/05/02 04:37:46;;;;;;;38.42;23.73;;;;;;;8.03;85.90;99548.78;5067148;28;20470;-52
2022/05/02 04:40:11;;;;;;;45.22;23.77;;;;;;;7.87;86.55;99560.00;5065425;28;20036;-52
2022/05/02 04:42:37;;;;;;;41.03;25.48;;;;;;;8.10;85.95;99559.41;5081049;28;20034;-52
2022/05/02 04:45:04;;;;;;;45.17;25.50;;;;;;;8.09;84.85;99568.47;5069865;28;20037;-51
2022/05/02 04:47:29;;;;;;;41.92;25.50;;;;;;;8.07;84.56;99565.19;5068955;28;20024;-53
2022/05/02 04:49:54;;;;;;;50.58;27.20;;;;;;;8.00;84.48;99565.22;5070114;28;20085;-54
2022/05/02 04:52:20;;;;;;;52.30;28.15;;;;;;;8.02;84.71;99565.03;5077249;28;20462;-51
2022/05/02 04:54:46;;;;;;;48.95;27.02;;;;;;;7.98;84.50;99562.78;5070337;28;20375;-53
2022/05/02 04:57:11;;;;;;;48.83;25.02;;;;;;;8.00;84.40;99563.38;5069020;28;20079;-54
2022/05/02 04:59:37;;;;;;;44.92;27.52;;;;;;;8.08;84.27;99564.16;5066812;28;20486;-53
2022/05/02 05:02:04;;;;;;;47.63;27.13;;;;;;;8.15;84.21;99568.41;5070829;28;20024;-53
2022/05/02 05:04:30;;;;;;;54.50;29.65;;;;;;;8.22;83.17;99571.03;5075942;28;20029;-53
2022/05/02 05:06:55;;;;;;;43.88;27.63;;;;;;;8.29;83.21;99574.47;5068539;28;20462;-51
2022/05/02 05:09:21;;;;;;;53.97;27.40;;;;;;;8.53;82.84;99569.31;5072108;28;20037;-52
2022/05/02 05:12:10;;;;;;;49.30;26.70;;;;;;;8.81;82.07;99576.84;5074682;28;20020;-51
2022/05/02 05:18:01;;;;;;;50.88;28.95;;;;;;;9.01;79.56;99576.63;5074080;28;20213;-51
2022/05/02 05:20:41;;;;;;;48.67;27.15;;;;;;;9.81;78.29;99575.56;5075172;28;20447;-53
2022/05/02 05:23:16;;;;;;;47.17;25.83;;;;;;;11.41;70.41;99579.72;5075632;28;20055;-53
2022/05/02 05:25:43;;;;;;;44.25;23.38;;;;;;;12.66;64.77;99579.69;5072547;28;20040;-53
2022/05/02 05:28:17;;;;;;;36.72;22.50;;;;;;;14.37;60.54;99570.47;5069447;28;20261;-52
2022/05/02 05:30:46;;;;;;;41.42;20.80;;;;;;;15.24;57.10;99577.16;5069234;28;20059;-53
2022/05/02 05:33:33;;;;;;;47.70;22.30;;;;;;;15.56;55.39;99581.59;5073207;28;20374;-53
2022/05/02 05:36:03;;;;;;;35.78;20.58;;;;;;;15.95;54.81;99581.16;5046844;28;20079;-50
2022/05/02 05:38:44;;;;;;;33.58;20.73;;;;;;;15.21;55.09;99579.59;5068116;28;20044;-51
2022/05/02 05:41:37;;;;;;;30.27;19.50;;;;;;;14.88;56.20;99577.00;5072640;28;20505;-54
2022/05/02 05:44:34;;;;;;;28.92;18.92;;;;;;;15.88;54.72;99583.31;5065008;28;20082;-54
2022/05/02 05:47:10;;;;;;;26.90;19.38;;;;;;;16.14;53.17;99587.63;5064279;28;20545;-54
2022/05/02 05:49:59;;;;;;;25.42;19.10;;;;;;;15.88;53.66;99580.59;5069818;28;20440;-51
2022/05/02 05:52:40;;;;;;;33.22;18.88;;;;;;;14.85;56.08;99588.34;5068915;28;20369;-54
2022/05/02 05:55:07;;;;;;;28.00;18.80;;;;;;;15.48;55.47;99580.22;5077670;28;20032;-51
2022/05/02 05:57:39;;;;;;;35.20;18.83;;;;;;;16.89;51.60;99584.31;5076383;28;20494;-51
2022/05/02 06:00:07;;;;;;;35.53;19.33;;;;;;;17.50;49.81;99582.44;5072258;28;20067;-52
2022/05/02 06:03:01;;;;;;;39.85;17.98;;;;;;;17.71;48.29;99583.94;5068047;28;20032;-54
2022/05/02 06:05:26;;;;;;;43.70;17.85;;;;;;;17.44;49.03;99582.44;5070043;28;20036;-49
2022/05/02 06:07:52;;;;;;;36.85;17.83;;;;;;;18.57;46.05;99576.25;5068771;28;20092;-52
2022/05/02 06:10:18;;;;;;;49.65;19.08;;;;;;;18.82;45.88;99577.06;5062010;28;20532;-49
2022/05/02 06:12:44;;;;;;;38.25;17.65;;;;;;;18.46;46.65;99582.84;5066577;28;20024;-51
2022/05/02 06:20:41;;;;;;;33.65;17.67;;;;;;;17.08;49.52;99583.72;5069861;28;20105;-52
2022/05/02 06:23:14;;;;;;;34.47;17.00;;;;;;;17.97;47.01;99572.94;5064114;28;20530;-50
2022/05/02 06:25:40;;;;;;;31.20;17.17;;;;;;;17.45;48.21;99578.66;5067388;28;20044;-54
2022/05/02 06:28:06;;;;;;;36.40;15.70;;;;;;;17.14;48.87;99578.00;5073172;28;20029;-52
2022/05/02 06:30:34;;;;;;;29.23;17.08;;;;;;;18.13;46.65;99577.16;5051809;28;20153;-52
2022/05/02 06:33:01;;;;;;;30.40;16.77;;;;;;;16.97;49.05;99572.94;5067478;28;20107;-50
2022/05/02 06:35:33;;;;;;;30.50;16.73;;;;;;;18.36;46.18;99575.59;5066964;28;20556;-51
2022/05/02 06:38:25;;;;;;;23.63;15.88;;;;;;;17.86;46.91;99578.44;5068406;28;20349;-51
2022/05/02 06:41:12;;;;;;;23.67;15.25;;;;;;;18.63;45.39;99575.06;5070362;28;20043;-52
2022/05/02 06:43:48;;;;;;;25.45;15.65;;;;;;;19.24;44.23;99578.22;5067197;28;20032;-49
2022/05/02 06:46:23;;;;;;;32.65;16.88;;;;;;;19.58;43.35;99583.47;5057155;28;20027;-52
2022/05/02 06:48:50;;;;;;;30.77;15.63;;;;;;;19.04;44.68;99579.28;5069248;28;20024;-52
2022/05/02 06:51:27;;;;;;;33.10;16.92;;;;;;;19.28;43.68;99580.06;5069029;28;20036;-50
2022/05/02 06:54:28;;;;;;;29.92;15.52;;;;;;;17.89;46.85;99579.78;5038722;28;20036;-50
2022/05/02 06:57:03;;;;;;;29.75;15.90;;;;;;;18.60;45.05;99580.28;5052110;28;20051;-52
2022/05/02 06:59:41;;;;;;;31.73;15.35;;;;;;;19.81;42.52;99587.25;5065990;28;20048;-53
2022/05/02 07:02:43;;;;;;;29.48;14.95;;;;;;;19.54;42.69;99580.50;5067926;28;20037;-51
2022/05/02 07:05:11;;;;;;;28.17;14.50;;;;;;;20.12;41.82;99578.59;5044234;28;20135;-50
2022/05/02 07:07:46;;;;;;;35.10;13.68;;;;;;;22.01;38.60;99583.03;5064445;28;20086;-51
2022/05/02 07:10:23;;;;;;;25.35;14.05;;;;;;;19.72;42.52;99580.84;5072527;28;20460;-54
2022/05/02 07:13:10;;;;;;;26.85;14.15;;;;;;;19.80;42.37;99578.28;5069168;28;20028;-53
2022/05/02 07:15:45;;;;;;;23.13;12.30;;;;;;;19.22;43.38;99583.97;5072378;28;20482;-54
2022/05/02 07:18:32;;;;;;;18.88;12.32;;;;;;;19.74;42.79;99575.91;5072086;28;20036;-53
2022/05/02 07:21:19;;;;;;;24.60;13.23;;;;;;;19.53;43.59;99587.06;5091897;27;20028;-53
2022/05/02 07:24:20;;;;;;;24.77;12.52;;;;;;;19.54;43.40;99580.50;5075197;28;20067;-53
2022/05/02 07:27:29;;;;;;;22.58;12.45;;;;;;;20.68;41.99;99585.84;5067748;28;20364;-51
2022/05/02 07:29:57;;;;;;;22.42;12.32;;;;;;;20.37;42.13;99582.84;5057720;28;20155;-51
2022/05/02 07:32:24;;;;;;;25.35;13.32;;;;;;;20.34;41.87;99583.41;5069291;28;20442;-53
2022/05/02 07:34:50;;;;;;;20.95;12.02;;;;;;;20.40;43.60;99583.03;5077806;28;20448;-52
2022/05/02 07:37:15;;;;;;;23.15;13.18;;;;;;;20.57;42.38;99578.97;5052144;28;20146;-53
2022/05/02 07:39:41;;;;;;;27.58;11.73;;;;;;;20.21;42.54;99579.53;5076025;28;20478;-51
2022/05/02 07:42:09;;;;;;;20.30;11.05;;;;;;;21.24;40.72;99578.47;5075639;28;20032;-53
2022/05/02 07:44:35;;;;;;;21.57;11.17;;;;;;;19.01;44.51;99590.72;5086640;28;20027;-53
2022/05/02 07:47:02;;;;;;;21.70;10.85;;;;;;;20.40;42.63;99583.03;5078743;28;20062;-51
2022/05/02 07:49:28;;;;;;;22.75;12.18;;;;;;;20.00;43.72;99579.09;5072999;28;20143;-51
2022/05/02 07:51:54;;;;;;;22.67;12.15;;;;;;;19.68;44.29;99582.56;5081143;28;20051;-54
2022/05/02 07:54:26;;;;;;;20.67;11.00;;;;;;;19.20;44.89;99582.63;5071794;28;20024;-53
2022/05/02 07:56:59;;;;;;;21.63;11.63;;;;;;;20.56;42.89;99590.94;5072622;28;20521;-52
2022/05/02 07:59:26;;;;;;;22.00;12.02;;;;;;;20.58;42.35;99586.03;5069841;28;20500;-53
2022/05/02 08:01:53;;;;;;;26.27;11.98;;;;;;;20.38;42.99;99587.97;5077699;28;20537;-53
2022/05/02 08:04:19;;;;;;;35.03;11.52;;;;;;;20.06;42.32;99580.59;5078587;28;20117;-53
2022/05/02 08:07:03;;;;;;;17.35;10.85;;;;;;;20.20;42.86;99577.94;5075267;28;20470;-54
2022/05/02 08:09:34;;;;;;;19.67;10.25;;;;;;;19.70;42.83;99583.06;5068601;28;20025;-54
2022/05/02 08:12:21;;;;;;;27.08;10.98;;;;;;;19.72;43.03;99587.13;5072961;28;20547;-54
2022/05/02 08:15:07;;;;;;;27.42;10.25;;;;;;;20.60;42.34;99584.63;5075668;28;20090;-51
2022/05/02 08:17:57;;;;;;;23.40;12.50;;;;;;;20.23;43.61;99585.50;5077619;28;20048;-51
2022/05/02 08:20:39;;;;;;;27.00;10.40;;;;;;;20.24;42.73;99589.81;5071926;28;20048;-51
2022/05/02 08:29:01;;;;;;;21.25;10.18;;;;;;;20.15;43.42;99575.31;5077568;28;20094;-51
2022/05/02 08:31:33;;;;;;;;;;;;;;;18.87;45.09;99580.56;5075337;28;20467;-53
2022/05/02 08:34:18;;;;;;;26.60;10.43;;;;;;;19.40;44.53;99571.50;5102615;27;20285;-53
2022/05/02 08:36:54;;;;;;;26.27;10.70;;;;;;;20.44;42.96;99569.63;5086958;28;20178;-56
2022/05/02 08:39:25;;;;;;;28.02;10.95;;;;;;;19.91;43.71;99564.53;5078940;28;20024;-54
2022/05/02 08:42:23;;;;;;;21.67;10.85;;;;;;;20.31;42.53;99571.19;5052625;28;20198;-52
2022/05/02 08:44:58;;;;;;;29.88;10.70;;;;;;;19.40;44.55;99561.41;5071007;28;20085;-52
2022/05/02 08:47:48;;;;;;;23.52;10.85;;;;;;;18.83;46.47;99562.41;5076744;28;20364;-53
2022/05/02 08:50:46;;;;;;;18.65;10.27;;;;;;;19.94;44.48;99559.28;5073313;28;20044;-52
2022/05/02 08:53:18;;;;;;;20.40;9.63;;;;;;;20.77;42.74;99564.97;5074486;28;20426;-53
2022/05/02 08:55:57;;;;;;;30.42;9.38;;;;;;;20.47;44.10;99560.88;5069302;28;20040;-53
2022/05/02 08:58:53;;;;;;;18.02;9.50;;;;;;;20.09;43.46;99562.88;5075948;28;20025;-53
2022/05/02 09:01:45;;;;;;;22.15;9.50;;;;;;;19.93;43.49;99562.31;5072097;28;20520;-54
2022/05/02 09:04:42;;;;;;;19.00;9.32;;;;;;;18.30;47.09;99555.84;5068266;28;20028;-52
2022/05/02 09:07:35;;;;;;;25.05;10.32;;;;;;;18.89;47.13;99547.66;5069481;28;20166;-53
2022/05/02 09:10:23;;;;;;;25.98;9.65;;;;;;;20.10;45.13;99556.34;5078292;28;20030;-51
2022/05/02 09:13:19;;;;;;;19.85;10.05;;;;;;;20.51;43.32;99550.19;5079793;28;20032;-54
2022/05/02 09:15:45;;;;;;;20.80;9.90;;;;;;;21.02;43.25;99554.69;5073684;28;20040;-53
2022/05/02 09:18:43;;;;;;;21.13;9.23;;;;;;;20.17;44.43;99554.06;5076288;28;20020;-51
2022/05/02 09:21:30;;;;;;;21.33;8.60;;;;;;;19.20;44.88;99556.25;5071090;28;20487;-54
2022/05/02 09:24:21;;;;;;;25.42;10.02;;;;;;;18.38;46.52;99556.34;5070544;28;20036;-54
2022/05/02 09:27:36;;;;;;;14.23;9.32;;;;;;;17.98;47.62;99558.31;5066173;28;20020;-54
2022/05/02 09:30:26;;;;;;;14.35;8.80;;;;;;;18.29;47.63;99553.41;5891180;22;20016;-53
2022/05/02 09:33:05;;;;;;;19.85;10.00;;;;;;;17.67;48.96;99547.63;5014224;28;20285;-52
2022/05/02 09:35:41;;;;;;;18.67;9.73;;;;;;;16.87;51.03;99542.34;5017178;28;20029;-53
2022/05/02 09:38:24;;;;;;;17.90;8.90;;;;;;;18.62;48.44;99534.63;5036055;28;20069;-53
2022/05/02 09:49:56;;;;;;;17.48;9.93;;;;;;;17.68;50.05;99535.72;4995690;28;20075;-53
2022/05/02 09:52:29;;;;;;;14.05;10.02;;;;;;;17.01;51.03;99536.06;4987378;28;20395;-53
2022/05/02 09:58:21;;;;;;;24.33;10.50;;;;;;;18.40;48.32;99537.88;5004236;28;20036;-52
2022/05/02 10:01:06;;;;;;;26.50;10.85;;;;;;;18.51;48.61;99533.94;4953154;28;20146;-54
2022/05/02 10:03:34;;;;;;;19.15;10.35;;;;;;;17.92;49.80;99532.31;4992972;28;20558;-52
2022/05/02 10:06:10;;;;;;;20.63;10.18;;;;;;;18.03;49.37;99526.53;5009642;28;20398;-54
2022/05/02 10:08:47;;;;;;;18.60;10.57;;;;;;;17.59;49.75;99518.44;5005429;28;20034;-54
2022/05/02 10:11:20;;;;;;;19.38;9.82;;;;;;;18.90;47.82;99519.44;5010344;28;20109;-54
2022/05/02 10:14:23;;;;;;;23.23;10.35;;;;;;;18.41;48.14;99512.34;5009632;28;20366;-53
2022/05/02 10:17:12;;;;;;;22.70;11.05;;;;;;;19.80;46.82;99514.94;4949798;28;20053;-52
2022/05/02 10:19:47;;;;;;;19.02;10.13;;;;;;;19.81;47.06;99521.97;4994140;28;20258;-53
2022/05/02 10:22:29;;;;;;;15.00;10.50;;;;;;;19.39;46.99;99521.78;5001267;28;20030;-55
2022/05/02 10:25:46;;;;;;;15.55;10.13;;;;;;;19.24;45.89;99513.81;5005522;28;20587;-51
2022/05/02 10:28:26;;;;;;;13.68;8.73;;;;;;;19.24;46.78;99507.56;4948054;28;20552;-52
2022/05/02 10:31:10;;;;;;;13.65;9.30;;;;;;;19.92;45.08;99518.00;4948570;28;20043;-50
2022/05/02 10:33:44;;;;;;;12.48;9.45;;;;;;;18.22;47.58;99513.06;4974511;28;20569;-52
2022/05/02 10:36:10;;;;;;;17.15;10.18;;;;;;;18.58;47.47;99509.19;5001274;28;20030;-54
2022/05/02 10:38:35;;;;;;;15.55;9.48;;;;;;;20.58;44.75;99507.06;5001488;28;20061;-53
2022/05/02 10:41:12;;;;;;;14.60;9.30;;;;;;;21.02;43.96;99508.38;4980885;28;20108;-54
2022/05/02 10:43:39;;;;;;;16.05;9.20;;;;;;;20.39;42.08;99501.66;5000544;28;20473;-52
2022/05/02 10:46:04;;;;;;;19.00;9.10;;;;;;;19.72;43.38;99497.38;4965334;28;20131;-54
2022/05/02 10:48:40;;;;;;;15.20;9.85;;;;;;;19.04;45.64;99498.59;4991740;28;20475;-51
2022/05/02 10:51:30;;;;;;;19.95;10.55;;;;;;;19.09;45.44;99490.38;4990917;28;20038;-53
2022/05/02 10:54:07;;;;;;;14.60;9.93;;;;;;;20.64;43.83;99494.94;5002240;28;20038;-54
2022/05/02 10:56:44;;;;;;;19.55;9.70;;;;;;;20.94;42.74;99479.88;4984651;28;20034;-52
2022/05/02 10:59:15;;;;;;;15.02;9.40;;;;;;;21.67;40.84;99482.66;5002237;28;20096;-51
2022/05/02 11:02:02;;;;;;;20.50;10.07;;;;;;;20.03;43.10;99484.06;5010567;28;20061;-50
2022/05/02 11:04:46;;;;;;;15.93;9.75;;;;;;;19.27;46.04;99475.19;5007666;28;20026;-53
2022/05/02 11:07:30;;;;;;;21.92;10.23;;;;;;;19.60;44.96;99472.53;4998562;28;20026;-52
2022/05/02 11:09:59;;;;;;;16.33;10.48;;;;;;;20.70;43.56;99471.97;4984995;28;20042;-51
2022/05/02 11:12:29;;;;;;;16.20;10.13;;;;;;;18.81;45.51;99475.00;5005331;28;20209;-50
2022/05/02 11:14:56;;;;;;;;;;;;;;;20.00;44.83;99471.06;4981924;28;20080;-53
2022/05/02 11:17:43;;;;;;;14.95;9.43;;;;;;;19.93;43.92;99465.19;5013932;28;19928;-52
2022/05/02 11:23:32;;;;;;;11.82;9.90;;;;;;;19.54;46.11;99468.25;4984726;28;20063;-53
2022/05/02 11:26:32;;;;;;;27.42;11.23;;;;;;;19.58;45.74;99464.66;4991662;28;20766;-51
2022/05/02 11:29:00;;;;;;;21.58;10.07;;;;;;;18.74;48.88;99473.41;4964521;28;20058;-53
2022/05/02 11:31:29;;;;;;;19.15;10.13;;;;;;;18.82;48.00;99455.72;5004254;28;20030;-52
2022/05/02 11:34:06;;;;;;;16.17;9.70;;;;;;;19.15;47.14;99456.59;5010414;28;20117;-51
2022/05/02 11:36:33;;;;;;;19.58;9.88;;;;;;;18.96;48.11;99447.63;4997054;28;20026;-52
2022/05/02 11:39:04;;;;;;;15.48;9.65;;;;;;;19.33;46.49;99454.19;4998423;28;20109;-49
2022/05/02 11:41:30;;;;;;;16.33;10.38;;;;;;;19.73;45.10;99451.97;5006218;28;20491;-51
2022/05/02 11:44:14;;;;;;;17.05;9.98;;;;;;;19.92;43.34;99455.44;5000917;28;20137;-52
2022/05/02 11:47:13;;;;;;;22.92;10.27;;;;;;;19.48;45.13;99442.28;4984477;28;20034;-54
2022/05/02 11:49:41;;;;;;;18.27;9.95;;;;;;;19.59;45.92;99441.81;4970512;28;20050;-52
2022/05/02 11:52:11;;;;;;;16.15;9.60;;;;;;;20.02;44.36;99446.28;4987523;28;20034;-53
2022/05/02 11:54:39;;;;;;;16.40;8.30;;;;;;;19.96;45.36;99437.41;4985301;28;20184;-55
2022/05/02 11:57:20;;;;;;;16.08;9.45;;;;;;;19.82;43.53;99437.38;4990358;28;20041;-52
2022/05/02 12:00:14;;;;;;;19.85;9.77;;;;;;;18.61;46.55;99436.09;4988921;28;20373;-52
2022/05/02 12:02:46;;;;;;;15.48;9.30;;;;;;;19.25;46.03;99428.50;4988727;28;20037;-52
2022/05/02 12:05:17;;;;;;;18.02;10.40;;;;;;;17.57;48.30;99423.03;4991651;28;20048;-52
2022/05/02 12:07:57;;;;;;;13.57;9.23;;;;;;;18.95;46.87;99421.59;4987414;28;20032;-55
2022/05/02 12:10:32;;;;;;;15.70;8.90;;;;;;;19.94;45.21;99428.72;4982483;28;20030;-54
2022/05/02 12:12:58;;;;;;;17.35;9.57;;;;;;;20.66;43.37;99428.19;4985276;28;20030;-51
2022/05/02 12:15:24;;;;;;;15.80;8.48;;;;;;;21.45;41.76;99426.19;4985417;28;20073;-51
2022/05/02 12:17:59;;;;;;;11.60;8.05;;;;;;;21.22;41.67;99422.63;4979949;28;20038;-52
2022/05/02 12:20:40;;;;;;;19.15;8.02;;;;;;;21.14;43.07;99415.97;4971892;28;20394;-54